Time;durP1;ratioP1;P1;durP2;ratioP2;P2;SDS_P1;SDS_P2;PMS_P1;PMS_P2;Temp;Humidity;BMP_temperature;BMP_pressure;BME280_temperature;BME280_humidity;BME280_pressure;Samples;Min_cycle;Max_cycle;Signal;HPM_P1;HPM_P2
2021/04/06 00:01:36;;;;;;;2.57;1.17;;;;;;;0.23;82.90;98455.88;5071329;27;104119;-77
2021/04/06 00:04:07;;;;;;;2.93;1.40;;;;;;;0.02;83.94;98454.03;5072097;27;103771;-77
2021/04/06 00:06:37;;;;;;;2.70;1.60;;;;;;;0.03;82.66;98450.50;5072395;27;102934;-77
2021/04/06 00:09:26;;;;;;;2.60;1.60;;;;;;;-0.04;86.02;98449.91;5070239;27;102713;-77
2021/04/06 00:11:59;;;;;;;6.00;1.83;;;;;;;-0.03;85.86;98450.75;5068418;27;104429;-77
2021/04/06 00:14:27;;;;;;;1.33;1.00;;;;;;;0.14;84.20;98443.19;5090458;27;103813;-78
2021/04/06 00:17:02;;;;;;;2.97;1.40;;;;;;;-0.03;82.98;98441.19;5082642;27;102850;-78
2021/04/06 00:19:38;;;;;;;3.10;1.20;;;;;;;0.07;83.95;98433.94;5107710;27;103012;-77
2021/04/06 00:22:06;;;;;;;4.30;1.73;;;;;;;-0.04;82.97;98431.72;5092022;27;104369;-78
2021/04/06 00:24:37;;;;;;;2.13;1.00;;;;;;;0.08;81.76;98432.19;5090087;27;103586;-77
2021/04/06 00:27:12;;;;;;;1.43;0.80;;;;;;;0.19;82.42;98432.66;5084772;27;102643;-77
2021/04/06 00:29:42;;;;;;;4.23;1.53;;;;;;;0.14;82.21;98437.19;5071939;27;102623;-77
2021/04/06 00:32:10;;;;;;;3.27;1.23;;;;;;;0.17;82.81;98442.28;5090529;27;103166;-78
2021/04/06 00:34:38;;;;;;;1.57;1.07;;;;;;;0.09;82.75;98439.91;5089546;27;103252;-78
2021/04/06 00:37:10;;;;;;;3.13;1.30;;;;;;;0.01;82.96;98444.53;5094819;27;102485;-77
2021/04/06 00:39:47;;;;;;;2.73;1.17;;;;;;;0.02;83.06;98455.78;5110572;27;102616;-77
2021/04/06 00:42:21;;;;;;;3.27;1.40;;;;;;;0.07;83.55;98452.13;5092472;27;103343;-77
2021/04/06 00:44:52;;;;;;;2.13;1.30;;;;;;;0.08;83.39;98447.78;5094139;27;103763;-77
2021/04/06 00:47:24;;;;;;;1.40;1.23;;;;;;;0.12;82.48;98454.56;5094708;27;102990;-78
2021/04/06 00:49:53;;;;;;;2.30;1.20;;;;;;;0.17;82.46;98456.09;5094140;27;102695;-77
2021/04/06 00:52:22;;;;;;;3.10;1.87;;;;;;;0.10;81.78;98453.75;5075010;27;105118;-78
2021/04/06 00:54:53;;;;;;;5.53;1.30;;;;;;;0.06;82.55;98458.22;5094266;27;103647;-77
2021/04/06 00:57:23;;;;;;;3.70;1.10;;;;;;;0.08;82.12;98459.03;5088831;27;102616;-78
2021/04/06 01:00:13;;;;;;;1.67;1.20;;;;;;;0.03;82.12;98460.91;5092033;27;102870;-78
2021/04/06 01:03:06;;;;;;;3.13;1.10;;;;;;;0.09;82.39;98457.25;5090683;27;104345;-77
2021/04/06 01:05:35;;;;;;;1.73;1.30;;;;;;;0.00;83.91;98461.03;5085218;27;103364;-77
2021/04/06 01:08:04;;;;;;;3.70;1.23;;;;;;;-0.17;84.08;98468.53;5064427;27;103073;-77
2021/04/06 01:10:33;;;;;;;2.00;1.20;;;;;;;-0.12;84.43;98469.22;5087277;27;102638;-78
2021/04/06 01:13:02;;;;;;;3.03;1.40;;;;;;;-0.17;84.65;98473.72;5090030;27;104008;-78
2021/04/06 01:15:33;;;;;;;2.23;1.50;;;;;;;-0.15;84.28;98467.59;5014513;28;104126;-77
2021/04/06 01:18:11;;;;;;;5.30;1.57;;;;;;;-0.06;84.79;98453.44;5026757;28;102628;-78
2021/04/06 01:20:38;;;;;;;3.17;1.10;;;;;;;-0.09;83.76;98446.63;5002639;28;102525;-77
2021/04/06 01:23:11;;;;;;;3.27;1.97;;;;;;;-0.29;83.96;98448.16;5014713;28;104108;-77
2021/04/06 01:25:44;;;;;;;2.80;1.60;;;;;;;-0.39;84.03;98457.16;4994483;28;105620;-78
2021/04/06 01:28:12;;;;;;;2.00;1.13;;;;;;;-0.33;84.80;98446.56;4988478;28;102655;-78
2021/04/06 01:30:45;;;;;;;3.00;1.60;;;;;;;-0.41;85.29;98453.75;4994270;28;102678;-77
2021/04/06 01:33:13;;;;;;;3.90;1.67;;;;;;;-0.55;84.64;98453.34;4990413;28;106269;-77
2021/04/06 01:35:45;;;;;;;3.80;1.10;;;;;;;-0.45;84.47;98450.38;5017817;27;103705;-78
2021/04/06 01:38:13;;;;;;;3.07;1.33;;;;;;;-0.40;84.00;98442.47;5027857;28;102500;-77
2021/04/06 01:40:40;;;;;;;3.40;1.60;;;;;;;-0.37;84.14;98429.41;4974389;28;104848;-78
2021/04/06 01:43:09;;;;;;;2.17;1.50;;;;;;;-0.35;84.15;98437.97;4991652;28;103307;-77
2021/04/06 01:45:43;;;;;;;3.30;1.63;;;;;;;-0.69;84.25;98436.47;5001532;28;103456;-78
2021/04/06 01:48:12;;;;;;;7.10;2.53;;;;;;;-0.55;84.38;98429.97;5012602;28;102546;-78
2021/04/06 01:50:40;;;;;;;3.70;1.40;;;;;;;-0.61;83.44;98426.69;5012481;28;102760;-77
2021/04/06 01:53:07;;;;;;;7.17;1.70;;;;;;;-0.69;84.66;98420.91;5000915;28;104389;-77
2021/04/06 01:55:37;;;;;;;3.07;1.50;;;;;;;-0.52;83.76;98422.09;4996431;28;103296;-77
2021/04/06 01:58:05;;;;;;;3.77;1.97;;;;;;;-0.61;83.80;98426.69;4982283;28;102592;-78
2021/04/06 02:00:39;;;;;;;3.93;1.40;;;;;;;-0.44;84.94;98417.50;4992589;28;103116;-78
2021/04/06 02:03:12;;;;;;;3.43;1.47;;;;;;;-0.49;84.32;98420.25;5019074;28;103915;-78
2021/04/06 02:05:42;;;;;;;4.27;1.70;;;;;;;-0.45;84.03;98421.03;5006071;28;104266;-78
2021/04/06 02:08:13;;;;;;;2.03;1.20;;;;;;;-0.40;83.59;98417.38;5013661;28;102643;-77
2021/04/06 02:10:50;;;;;;;6.60;1.50;;;;;;;-0.44;83.81;98417.50;5014493;28;102571;-78
2021/04/06 02:13:19;;;;;;;3.43;1.50;;;;;;;-0.57;84.17;98416.22;5013407;28;103236;-78
2021/04/06 02:15:55;;;;;;;4.77;1.30;;;;;;;-0.64;84.26;98423.34;5013047;28;103617;-78
2021/04/06 02:18:26;;;;;;;2.93;1.63;;;;;;;-0.78;84.94;98423.78;4998577;28;102833;-78
2021/04/06 02:21:08;;;;;;;4.23;1.60;;;;;;;-0.73;84.46;98421.06;5014536;28;102734;-77
2021/04/06 02:23:46;;;;;;;2.50;1.20;;;;;;;-0.52;83.65;98412.56;5015684;28;103814;-78
2021/04/06 02:26:14;;;;;;;2.23;1.30;;;;;;;-0.53;83.94;98407.44;5027443;28;102620;-78
2021/04/06 02:28:42;;;;;;;3.47;1.30;;;;;;;-0.60;83.05;98414.56;5014328;28;102530;-78
2021/04/06 02:31:17;;;;;;;1.90;1.17;;;;;;;-0.69;84.46;98412.25;5015069;28;102856;-77
2021/04/06 02:33:46;;;;;;;1.70;1.30;;;;;;;-0.61;82.84;98418.91;4961991;28;104352;-78
2021/04/06 02:36:13;;;;;;;3.77;1.30;;;;;;;-0.50;82.74;98413.38;5010245;28;102578;-77
2021/04/06 02:38:45;;;;;;;6.67;1.57;;;;;;;-0.43;82.43;98408.81;5009504;28;102758;-77
2021/04/06 02:41:17;;;;;;;3.37;1.20;;;;;;;-0.42;81.89;98408.75;5014065;28;102833;-78
2021/04/06 02:43:50;;;;;;;2.50;0.90;;;;;;;-0.40;82.13;98411.31;5014882;28;103366;-78
2021/04/06 02:46:21;;;;;;;2.93;1.40;;;;;;;-0.39;82.18;98392.28;5015735;28;103654;-78
2021/04/06 02:48:50;;;;;;;3.03;1.60;;;;;;;-0.44;82.40;98396.75;5012758;28;102964;-78
2021/04/06 02:51:18;;;;;;;3.13;1.50;;;;;;;-0.57;81.53;98396.31;4997234;28;103244;-78
2021/04/06 02:53:54;;;;;;;4.67;1.70;;;;;;;-0.60;82.40;98402.44;5000838;28;102894;-78
2021/04/06 02:56:33;;;;;;;3.20;1.30;;;;;;;-0.48;81.69;98405.53;4996322;28;103911;-78
2021/04/06 02:59:19;;;;;;;3.93;1.50;;;;;;;-0.56;82.14;98413.56;4974475;28;102651;-78
2021/04/06 03:01:48;;;;;;;5.20;1.80;;;;;;;-0.73;82.58;98408.91;4990220;28;102700;-78
2021/04/06 03:04:23;;;;;;;3.50;1.50;;;;;;;-0.82;83.03;98405.78;5010655;28;103991;-78
2021/04/06 03:06:51;;;;;;;4.13;1.77;;;;;;;-0.87;82.76;98398.13;5007470;28;103782;-78
2021/04/06 03:09:22;;;;;;;2.37;1.73;;;;;;;-0.91;82.92;98391.34;4975224;28;102729;-78
2021/04/06 03:11:58;;;;;;;3.47;1.33;;;;;;;-0.65;82.52;98381.00;4974745;28;104581;-78
2021/04/06 03:14:26;;;;;;;2.87;1.80;;;;;;;-0.89;82.41;98389.56;4992188;28;103275;-78
2021/04/06 03:16:54;;;;;;;2.83;1.63;;;;;;;-0.81;82.62;98386.69;4996168;28;103846;-78
2021/04/06 03:19:29;;;;;;;3.13;1.40;;;;;;;-0.72;82.93;98382.09;5012047;28;102514;-78
2021/04/06 03:21:57;;;;;;;3.13;1.60;;;;;;;-0.72;82.36;98379.50;5012325;28;103274;-78
2021/04/06 03:24:28;;;;;;;2.33;1.20;;;;;;;-0.56;82.26;98377.22;4996117;28;103508;-78
2021/04/06 03:27:00;;;;;;;2.97;1.60;;;;;;;-0.53;81.55;98376.31;5007088;28;104368;-76
2021/04/06 03:29:28;;;;;;;4.27;1.70;;;;;;;-0.40;81.96;98382.78;5011712;28;102567;-78
2021/04/06 03:31:56;;;;;;;3.57;1.50;;;;;;;-0.41;82.04;98375.88;4993889;28;102627;-78
2021/04/06 03:34:31;;;;;;;5.43;1.77;;;;;;;-0.50;81.82;98377.03;5011415;28;104110;-78
2021/04/06 03:36:59;;;;;;;4.03;1.53;;;;;;;-0.71;80.54;98381.19;5011711;28;103223;-78
2021/04/06 03:39:27;;;;;;;8.27;1.87;;;;;;;-0.65;81.25;98383.59;4996026;28;102584;-78
2021/04/06 03:41:54;;;;;;;5.13;2.13;;;;;;;-0.53;80.81;98378.91;5010600;28;102809;-78
2021/04/06 03:44:40;;;;;;;2.93;1.47;;;;;;;-0.54;81.20;98384.97;5009418;28;103890;-78
2021/04/06 03:47:08;;;;;;;3.93;1.50;;;;;;;-0.47;80.89;98386.47;5049211;27;103799;-78
2021/04/06 03:49:49;;;;;;;4.07;1.30;;;;;;;-0.68;80.85;98385.44;5051918;27;102501;-78
2021/04/06 03:52:16;;;;;;;3.40;1.40;;;;;;;-0.52;81.29;98389.22;5051850;27;102915;-78
2021/04/06 03:54:49;;;;;;;5.23;1.70;;;;;;;-0.55;81.34;98383.28;5034610;27;103930;-78
2021/04/06 03:57:35;;;;;;;3.70;1.20;;;;;;;-0.42;79.94;98382.81;5049657;27;103896;-77
2021/04/06 04:09:56;;;;;;;5.17;1.77;;;;;;;-0.42;80.49;98392.38;4799201;29;102878;-79
2021/04/06 04:42:24;;;;;;;5.63;1.93;;;;;;;-0.09;80.08;98383.44;6181798;22;102645;-78
2021/04/06 04:45:13;;;;;;;4.43;2.10;;;;;;;-0.11;79.59;98382.63;6163886;22;102611;-79
2021/04/06 04:48:00;;;;;;;3.40;1.50;;;;;;;-0.03;79.93;98372.84;6184292;22;102832;-79
2021/04/06 04:50:31;;;;;;;5.57;1.70;;;;;;;0.01;80.07;98379.59;6187001;22;103373;-78
2021/04/06 04:53:16;;;;;;;5.13;1.70;;;;;;;0.02;79.82;98383.06;6159540;22;104375;-78
2021/04/06 04:56:04;;;;;;;5.43;1.80;;;;;;;-0.02;80.36;98377.09;6184266;22;102641;-79
2021/04/06 04:58:52;;;;;;;6.70;1.97;;;;;;;0.06;80.44;98374.25;6164784;22;102678;-78
2021/04/06 05:01:25;;;;;;;3.30;1.60;;;;;;;0.10;80.03;98374.09;6187458;22;102758;-79
2021/04/06 05:03:52;;;;;;;6.70;1.80;;;;;;;-0.01;81.06;98373.63;6160525;22;102994;-78
2021/04/06 05:06:23;;;;;;;8.13;2.10;;;;;;;-0.16;81.18;98377.59;6187658;22;102440;-79
2021/04/06 05:08:50;;;;;;;5.17;1.77;;;;;;;-0.15;81.23;98373.25;6160934;22;103087;-78
2021/04/06 05:11:37;;;;;;;4.00;2.00;;;;;;;-0.11;81.58;98367.88;6184337;22;103029;-79
2021/04/06 05:14:25;;;;;;;5.63;2.57;;;;;;;-0.23;81.45;98370.06;6185939;22;103030;-78
2021/04/06 05:17:13;;;;;;;7.07;2.50;;;;;;;-0.10;81.20;98371.34;6185954;22;102534;-78
2021/04/06 05:19:54;;;;;;;2.87;1.60;;;;;;;0.01;81.95;98374.41;6199517;22;103095;-77
2021/04/06 05:31:47;;;;;;;6.27;2.47;;;;;;;0.24;80.62;98376.19;6183339;22;102420;-78
2021/04/06 05:34:14;;;;;;;4.53;2.20;;;;;;;0.04;79.35;98381.25;6181973;22;102871;-76
2021/04/06 05:36:42;;;;;;;6.03;2.07;;;;;;;0.25;80.29;98362.31;6181113;22;104283;-77
2021/04/06 05:39:09;;;;;;;3.90;2.10;;;;;;;0.34;79.94;98368.00;6183612;22;103174;-79
2021/04/06 05:41:36;;;;;;;7.13;1.97;;;;;;;0.28;80.03;98360.41;6181714;22;102470;-78
2021/04/06 05:45:11;;;;;;;6.00;1.90;;;;;;;0.36;79.94;98361.00;6130466;22;102632;-79
2021/04/06 05:48:02;;;;;;;7.03;2.40;;;;;;;0.32;79.33;98363.75;6177988;22;103058;-78
2021/04/06 05:50:30;;;;;;;5.73;2.00;;;;;;;0.37;81.08;98365.28;6181898;22;103585;-80
2021/04/06 05:52:57;;;;;;;5.77;2.80;;;;;;;0.53;81.32;98366.41;6184055;22;102409;-75
2021/04/06 05:55:25;;;;;;;7.17;2.40;;;;;;;0.39;79.06;98371.25;6179094;22;103099;-73
2021/04/06 05:57:54;;;;;;;5.20;2.00;;;;;;;0.41;79.73;98364.28;6174857;22;104312;-74
2021/04/06 06:00:23;;;;;;;8.23;1.93;;;;;;;0.49;79.63;98367.44;6177877;22;104150;-72
2021/04/06 06:02:51;;;;;;;4.70;1.60;;;;;;;0.56;79.57;98373.28;6181511;22;103117;-75
2021/04/06 06:05:19;;;;;;;5.27;2.10;;;;;;;0.44;79.17;98371.97;6180724;22;103340;-76
2021/04/06 06:07:46;;;;;;;6.93;2.00;;;;;;;0.53;80.16;98376.81;6151851;22;103402;-74
2021/04/06 06:10:28;;;;;;;8.93;1.97;;;;;;;0.59;78.71;98384.38;6176371;22;103648;-74
2021/04/06 06:16:08;;;;;;;4.10;1.47;;;;;;;0.88;78.83;98390.22;6176206;22;102915;-74
2021/04/06 06:19:03;;;;;;;4.17;2.10;;;;;;;0.92;80.05;98381.41;6175214;22;103849;-74
2021/04/06 06:21:40;;;;;;;4.17;1.67;;;;;;;1.04;78.95;98386.97;6175501;22;103661;-74
2021/04/06 06:24:09;;;;;;;6.90;2.37;;;;;;;1.00;78.49;98390.63;6177406;22;102999;-74
2021/04/06 06:26:37;;;;;;;5.90;2.43;;;;;;;1.11;78.46;98387.59;6175584;22;103095;-74
2021/04/06 06:29:08;;;;;;;7.60;2.10;;;;;;;1.08;77.57;98377.31;6175781;22;105610;-74
2021/04/06 06:31:39;;;;;;;7.27;1.77;;;;;;;1.17;77.56;98387.34;6175440;22;103619;-74
2021/04/06 06:34:27;;;;;;;7.63;2.00;;;;;;;0.87;76.57;98385.94;6176544;22;102524;-74
2021/04/06 06:37:18;;;;;;;5.60;1.90;;;;;;;0.98;77.55;98382.00;6176929;22;102852;-75
2021/04/06 06:39:57;;;;;;;5.20;2.37;;;;;;;1.27;77.90;98383.47;6168885;22;104431;-75
2021/04/06 06:42:26;;;;;;;6.50;1.80;;;;;;;1.24;77.34;98387.94;6175795;22;103633;-75
2021/04/06 06:44:53;;;;;;;5.10;2.20;;;;;;;1.09;77.22;98385.06;6178049;22;103165;-78
2021/04/06 06:47:22;;;;;;;5.30;2.13;;;;;;;1.05;77.70;98387.81;6176752;22;102877;-76
2021/04/06 06:49:52;;;;;;;6.30;2.77;;;;;;;1.18;76.79;98383.81;6176217;22;104760;-75
2021/04/06 06:52:33;;;;;;;4.30;2.00;;;;;;;1.33;77.24;98383.22;6149907;22;105850;-76
2021/04/06 06:55:17;;;;;;;9.77;2.67;;;;;;;1.38;76.59;98383.03;6177503;22;103022;-76
2021/04/06 06:57:44;;;;;;;7.13;2.30;;;;;;;1.33;77.03;98388.44;6173457;22;103017;-77
2021/04/06 07:00:15;;;;;;;9.23;2.20;;;;;;;1.27;77.00;98388.66;6176408;22;104266;-76
2021/04/06 07:02:43;;;;;;;3.63;2.17;;;;;;;1.40;76.03;98389.88;6176156;22;103643;-76
2021/04/06 07:05:19;;;;;;;7.03;2.30;;;;;;;1.35;76.43;98386.59;6176843;22;102499;-76
2021/04/06 07:07:54;;;;;;;4.77;2.30;;;;;;;1.31;75.86;98379.00;6158325;22;104886;-77
2021/04/06 07:10:23;;;;;;;5.97;2.83;;;;;;;1.41;77.64;98388.09;6168825;22;103732;-77
2021/04/06 07:12:56;;;;;;;8.33;2.53;;;;;;;1.23;76.53;98384.50;6168831;22;104795;-77
2021/04/06 07:15:24;;;;;;;3.53;2.10;;;;;;;1.63;75.46;98387.16;6170121;22;102986;-76
2021/04/06 07:17:55;;;;;;;4.53;1.93;;;;;;;1.83;74.42;98388.09;6170315;22;103476;-76
2021/04/06 07:20:23;;;;;;;3.90;1.83;;;;;;;1.79;74.32;98402.16;6141532;22;105711;-76
2021/04/06 07:22:56;;;;;;;8.50;3.00;;;;;;;2.11;74.34;98391.22;6168581;22;103721;-76
2021/04/06 07:25:23;;;;;;;4.90;2.40;;;;;;;2.46;73.98;98394.91;6167994;22;103636;-76
2021/04/06 07:27:51;;;;;;;3.20;2.00;;;;;;;2.56;73.81;98391.81;6167871;22;102899;-76
2021/04/06 07:30:19;;;;;;;7.03;2.47;;;;;;;2.66;73.46;98392.25;6139983;22;107120;-76
2021/04/06 07:32:47;;;;;;;4.93;2.30;;;;;;;2.68;74.17;98387.78;6173163;22;104804;-75
2021/04/06 07:35:15;;;;;;;7.17;2.50;;;;;;;2.70;73.85;98393.78;6175525;22;103424;-75
2021/04/06 07:37:44;;;;;;;6.63;2.13;;;;;;;2.67;74.22;98399.13;6176326;22;102927;-75
2021/04/06 07:40:16;;;;;;;7.80;2.67;;;;;;;2.72;73.47;98398.00;6173932;22;103685;-75
2021/04/06 07:42:45;;;;;;;5.90;2.10;;;;;;;2.72;73.67;98397.19;6173865;22;103653;-74
2021/04/06 07:45:37;;;;;;;5.67;2.27;;;;;;;2.45;73.72;98393.19;6174130;22;102921;-74
2021/04/06 07:48:05;;;;;;;7.30;2.43;;;;;;;2.32;71.67;98387.69;6175357;22;103051;-74
2021/04/06 07:50:39;;;;;;;5.50;2.70;;;;;;;2.22;74.54;98387.22;6175422;22;103612;-75
2021/04/06 07:53:20;;;;;;;6.57;2.23;;;;;;;2.40;73.79;98385.59;6175314;22;103868;-74
2021/04/06 07:55:49;;;;;;;6.80;2.43;;;;;;;2.50;72.90;98386.84;6174982;22;102911;-75
2021/04/06 07:58:47;;;;;;;4.13;1.90;;;;;;;2.67;72.08;98386.09;6176660;22;102992;-75
2021/04/06 08:01:17;;;;;;;5.40;2.50;;;;;;;2.80;73.16;98379.41;6174639;22;104788;-75
2021/04/06 08:04:04;;;;;;;4.73;2.00;;;;;;;3.12;74.65;98386.56;6174345;22;105124;-75
2021/04/06 08:06:46;;;;;;;5.67;2.37;;;;;;;2.92;72.83;98384.91;6175391;22;102854;-75
2021/04/06 08:09:42;;;;;;;6.30;2.50;;;;;;;2.81;72.34;98396.75;6175235;22;103071;-74
2021/04/06 08:12:13;;;;;;;6.70;2.23;;;;;;;2.88;72.24;98387.72;6173055;22;104129;-75
2021/04/06 08:31:40;;;;;;;8.13;2.50;;;;;;;2.93;72.91;98407.47;6165191;22;105894;-73
2021/04/06 08:34:48;;;;;;;9.13;2.50;;;;;;;2.62;74.02;98401.97;6200795;22;103040;-75
2021/04/06 08:37:21;;;;;;;10.80;2.70;;;;;;;2.77;73.16;98410.88;6199019;22;102976;-74
2021/04/06 08:39:48;;;;;;;4.77;2.20;;;;;;;2.93;72.27;98397.03;6205025;22;103758;-75
2021/04/06 08:42:20;;;;;;;9.00;2.70;;;;;;;2.88;72.11;98409.47;6203763;22;103880;-75
2021/04/06 08:44:57;;;;;;;4.30;2.53;;;;;;;2.88;71.95;98409.47;6203751;22;103089;-75
2021/04/06 08:47:43;;;;;;;6.60;2.00;;;;;;;3.14;73.72;98408.25;6202539;22;102862;-75
2021/04/06 08:50:17;;;;;;;6.17;2.20;;;;;;;3.42;72.48;98395.53;6153846;22;106353;-73
2021/04/06 08:52:46;;;;;;;5.23;2.30;;;;;;;2.98;72.58;98402.03;6203121;22;103207;-75
2021/04/06 08:55:15;;;;;;;6.27;2.20;;;;;;;3.12;72.53;98396.16;6204802;22;102467;-73
2021/04/06 08:57:43;;;;;;;5.87;2.40;;;;;;;3.33;71.97;98400.38;6203089;22;102910;-75
2021/04/06 09:00:14;;;;;;;5.73;2.13;;;;;;;4.08;69.47;98401.81;6205400;22;104422;-75
2021/04/06 09:02:42;;;;;;;3.80;2.30;;;;;;;4.05;68.93;98406.34;6206128;22;104435;-73
2021/04/06 09:05:11;;;;;;;5.63;2.47;;;;;;;3.41;70.29;98403.47;6206460;22;102836;-74
2021/04/06 09:07:39;;;;;;;3.60;2.00;;;;;;;3.70;70.47;98402.91;6207275;22;102917;-73
2021/04/06 09:10:09;;;;;;;4.67;2.20;;;;;;;3.81;70.19;98395.38;6206765;22;104903;-76
2021/04/06 09:12:38;;;;;;;5.83;2.70;;;;;;;4.02;72.17;98409.13;6206531;22;110790;-74
2021/04/06 09:15:08;;;;;;;5.57;2.20;;;;;;;4.01;70.31;98410.06;6206860;22;102534;-74
2021/04/06 09:17:37;;;;;;;6.53;2.03;;;;;;;3.67;69.82;98410.03;6180405;22;102926;-73
2021/04/06 09:20:10;;;;;;;5.17;2.40;;;;;;;4.04;70.96;98405.50;6206166;22;103677;-74
2021/04/06 09:22:38;;;;;;;5.43;2.23;;;;;;;3.94;70.76;98408.66;6206986;22;104466;-73
2021/04/06 09:25:16;;;;;;;7.10;2.40;;;;;;;3.96;70.08;98407.66;6204520;22;102928;-74
2021/04/06 09:27:49;;;;;;;7.20;2.33;;;;;;;4.51;71.02;98392.63;6206188;22;102978;-74
2021/04/06 09:30:18;;;;;;;4.93;1.83;;;;;;;4.75;69.76;98392.22;6204522;22;104190;-74
2021/04/06 09:32:45;;;;;;;6.90;1.83;;;;;;;4.61;67.07;98393.81;6203905;22;103684;-75
2021/04/06 09:35:17;;;;;;;4.90;2.47;;;;;;;4.92;67.40;98400.84;6207141;22;102958;-75
2021/04/06 09:37:45;;;;;;;5.37;1.83;;;;;;;4.90;66.54;98397.47;6205654;22;102901;-75
2021/04/06 09:40:13;;;;;;;6.67;1.87;;;;;;;5.02;67.09;98398.59;6206541;22;103171;-74
2021/04/06 09:42:40;;;;;;;7.50;2.40;;;;;;;4.61;67.23;98398.19;6206305;22;104170;-75
2021/04/06 09:45:09;;;;;;;5.33;2.23;;;;;;;4.16;68.44;98404.03;6207240;22;102987;-75
2021/04/06 09:47:37;;;;;;;5.23;2.17;;;;;;;3.95;68.08;98395.53;6207209;22;103107;-75
2021/04/06 09:50:08;;;;;;;4.23;2.20;;;;;;;4.26;67.29;98396.59;6176883;22;105412;-75
2021/04/06 09:52:38;;;;;;;5.20;1.73;;;;;;;4.57;66.83;98396.69;6203359;22;103795;-75
2021/04/06 09:55:09;;;;;;;2.97;1.80;;;;;;;4.48;67.30;98394.53;6203913;22;102952;-75
2021/04/06 09:57:38;;;;;;;5.30;2.00;;;;;;;5.03;66.76;98398.50;6202138;22;102864;-75
2021/04/06 10:00:07;;;;;;;5.97;2.20;;;;;;;4.92;66.87;98395.63;6150460;22;105014;-75
2021/04/06 10:02:35;;;;;;;3.13;2.03;;;;;;;4.57;65.87;98388.81;6150039;22;104808;-75
2021/04/06 10:05:03;;;;;;;4.23;1.73;;;;;;;4.86;64.99;98395.94;6204168;22;102966;-75
2021/04/06 10:07:32;;;;;;;4.40;2.10;;;;;;;4.74;64.64;98395.78;6203719;22;102740;-75
2021/04/06 10:10:03;;;;;;;7.90;2.23;;;;;;;4.49;65.94;98396.25;6203490;22;103337;-75
2021/04/06 10:12:32;;;;;;;6.53;2.27;;;;;;;4.76;65.48;98394.75;6176634;22;104660;-75
2021/04/06 10:15:03;;;;;;;7.23;2.63;;;;;;;4.89;64.53;98397.56;6151375;22;102985;-74
2021/04/06 10:17:36;;;;;;;3.97;2.10;;;;;;;4.94;62.76;98388.50;6204581;22;102717;-75
2021/04/06 10:20:08;;;;;;;7.93;4.73;;;;;;;4.84;64.20;98381.25;6202485;22;103790;-74
2021/04/06 10:22:42;;;;;;;7.87;3.57;;;;;;;4.74;63.14;98380.06;6203623;22;103809;-75
2021/04/06 10:25:13;;;;;;;4.77;2.43;;;;;;;5.01;63.07;98378.56;6204162;22;102859;-75
2021/04/06 10:27:41;;;;;;;6.87;2.10;;;;;;;5.61;61.39;98376.91;6204142;22;103275;-77
2021/04/06 10:30:11;;;;;;;4.73;2.00;;;;;;;5.51;63.21;98373.13;6164438;22;105537;-75
2021/04/06 10:32:41;;;;;;;3.83;1.80;;;;;;;5.36;61.95;98361.72;6168057;22;106293;-75
2021/04/06 10:35:21;;;;;;;4.07;2.00;;;;;;;5.52;63.09;98356.47;6172410;22;102849;-75
2021/04/06 10:37:51;;;;;;;6.70;2.43;;;;;;;5.32;60.53;98354.97;6173742;22;103418;-74
2021/04/06 10:40:37;;;;;;;7.67;2.67;;;;;;;5.37;61.52;98359.94;6173823;22;104875;-75
2021/04/06 10:43:08;;;;;;;3.77;2.00;;;;;;;5.30;61.23;98358.63;6175613;22;103816;-74
2021/04/06 10:45:38;;;;;;;6.20;2.10;;;;;;;5.28;62.83;98360.50;6175798;22;102904;-75
2021/04/06 10:48:14;;;;;;;3.70;1.87;;;;;;;5.38;60.90;98343.31;6174560;22;102899;-74
2021/04/06 10:50:44;;;;;;;6.70;2.13;;;;;;;5.35;60.79;98340.88;6174489;22;103771;-74
2021/04/06 10:53:22;;;;;;;4.93;2.30;;;;;;;5.35;60.07;98340.88;6174597;22;103661;-74
2021/04/06 10:55:54;;;;;;;6.23;2.10;;;;;;;6.23;58.96;98347.84;6174921;22;102906;-74
2021/04/06 10:58:29;;;;;;;5.60;2.07;;;;;;;6.16;58.53;98336.06;6174777;22;102906;-75
2021/04/06 11:01:04;;;;;;;2.73;1.50;;;;;;;5.96;57.95;98346.03;6174566;22;104671;-75
2021/04/06 11:03:48;;;;;;;4.80;1.93;;;;;;;6.99;56.62;98332.63;6171897;22;104196;-75
2021/04/06 11:06:21;;;;;;;4.03;1.77;;;;;;;6.58;56.64;98331.75;6174617;22;102947;-75
2021/04/06 11:08:50;;;;;;;3.97;1.93;;;;;;;5.86;56.63;98332.66;6175691;22;102585;-75
2021/04/06 11:11:24;;;;;;;4.40;1.83;;;;;;;6.22;57.61;98334.84;6172247;22;104355;-75
2021/04/06 11:13:51;;;;;;;2.67;1.60;;;;;;;6.21;57.57;98322.66;6174977;22;104190;-74
2021/04/06 11:16:19;;;;;;;2.97;1.73;;;;;;;6.14;54.23;98322.19;6175287;22;102434;-75
2021/04/06 11:19:03;;;;;;;5.67;1.60;;;;;;;5.99;56.00;98317.88;6173072;22;102978;-75
2021/04/06 11:21:31;;;;;;;3.63;1.80;;;;;;;6.07;55.98;98314.78;6169953;22;103783;-74
2021/04/06 11:23:59;;;;;;;5.83;2.00;;;;;;;6.22;55.88;98308.63;6170714;22;104691;-74
2021/04/06 11:26:27;;;;;;;7.70;1.83;;;;;;;6.00;55.72;98309.06;6175030;22;102874;-76
2021/04/06 11:28:55;;;;;;;5.40;1.93;;;;;;;6.35;54.80;98310.38;6174676;22;102840;-76
2021/04/06 11:31:24;;;;;;;5.30;2.10;;;;;;;6.04;53.60;98299.22;6174170;22;104874;-76
2021/04/06 11:33:53;;;;;;;3.63;2.23;;;;;;;6.05;54.43;98301.78;6204521;22;103241;-76
2021/04/06 11:36:20;;;;;;;3.87;1.80;;;;;;;5.94;55.34;98298.09;6178026;22;102851;-75
2021/04/06 11:38:49;;;;;;;5.70;1.70;;;;;;;6.71;54.36;98290.69;6205097;22;102549;-73
2021/04/06 11:41:17;;;;;;;4.83;1.70;;;;;;;6.43;53.18;98287.13;6204364;22;104567;-74
2021/04/06 11:43:47;;;;;;;4.73;1.90;;;;;;;6.88;53.06;98277.31;6205842;22;104098;-77
2021/04/06 11:46:15;;;;;;;6.63;1.87;;;;;;;7.53;53.41;98273.84;6178798;22;102901;-76
2021/04/06 11:48:43;;;;;;;5.17;1.90;;;;;;;7.73;51.78;98269.03;6203737;22;103171;-75
2021/04/06 11:51:16;;;;;;;5.13;1.70;;;;;;;7.57;51.93;98266.63;6203798;22;104457;-75
2021/04/06 11:53:44;;;;;;;3.93;1.80;;;;;;;6.85;52.84;98274.88;6205295;22;104105;-75
2021/04/06 11:56:12;;;;;;;4.60;1.93;;;;;;;6.49;53.57;98274.56;6205946;22;102898;-73
2021/04/06 11:58:40;;;;;;;4.63;2.17;;;;;;;5.89;53.04;98269.53;6203533;22;103012;-74
2021/04/06 12:01:27;;;;;;;3.80;1.60;;;;;;;5.83;53.45;98269.88;6175999;22;107050;-76
2021/04/06 12:03:55;;;;;;;4.27;1.63;;;;;;;6.82;53.16;98256.72;6178097;22;103692;-76
2021/04/06 12:06:23;;;;;;;4.47;1.80;;;;;;;6.47;53.80;98244.97;6174746;22;102868;-79
2021/04/06 12:08:52;;;;;;;7.13;2.10;;;;;;;6.11;52.79;98251.56;6202737;22;103013;-76
2021/04/06 12:11:20;;;;;;;5.10;1.73;;;;;;;6.78;52.50;98244.72;6200269;22;104767;-76
2021/04/06 12:13:49;;;;;;;4.03;1.60;;;;;;;7.73;50.55;98234.88;6198734;22;106338;-76
2021/04/06 12:16:17;;;;;;;4.90;1.50;;;;;;;7.86;49.33;98230.47;6175084;22;103056;-75
2021/04/06 12:18:48;;;;;;;5.10;1.80;;;;;;;7.62;49.96;98226.88;6202796;22;103055;-75
2021/04/06 12:21:16;;;;;;;3.27;1.53;;;;;;;7.21;49.95;98221.75;6202146;22;104829;-76
2021/04/06 12:23:43;;;;;;;4.30;1.60;;;;;;;7.77;48.57;98221.41;6201347;22;103658;-75
2021/04/06 12:26:11;;;;;;;3.10;1.50;;;;;;;7.71;49.03;98227.09;6201112;22;103228;-76
2021/04/06 12:28:39;;;;;;;3.60;1.77;;;;;;;8.46;48.70;98214.84;6202166;22;103209;-75
2021/04/06 12:31:09;;;;;;;2.53;1.93;;;;;;;7.44;49.36;98214.00;6173606;22;105990;-80
2021/04/06 12:33:38;;;;;;;2.67;1.87;;;;;;;7.24;50.10;98205.78;6201135;22;103758;-77
2021/04/06 12:36:06;;;;;;;2.90;1.87;;;;;;;7.16;49.83;98198.41;6176775;22;102913;-90
2021/04/06 12:38:34;;;;;;;3.57;1.77;;;;;;;7.30;50.32;98200.94;6151114;22;102788;-79
2021/04/06 12:41:02;;;;;;;7.10;1.80;;;;;;;7.42;48.52;98200.13;6201123;22;105105;-79
2021/04/06 12:43:29;;;;;;;3.13;1.60;;;;;;;7.91;48.40;98191.53;6203826;22;103603;-79
2021/04/06 12:45:56;;;;;;;6.40;1.93;;;;;;;7.26;49.00;98194.25;6176536;22;103054;-80
2021/04/06 12:48:31;;;;;;;4.57;1.87;;;;;;;6.72;49.95;98195.22;6204355;22;102896;-79
2021/04/06 12:50:58;;;;;;;3.70;1.80;;;;;;;7.07;49.03;98182.44;6202605;22;104135;-79
2021/04/06 12:53:27;;;;;;;2.93;1.63;;;;;;;7.04;49.69;98178.22;6202523;22;105157;-80
2021/04/06 12:55:55;;;;;;;3.97;1.73;;;;;;;6.86;49.68;98180.25;6204068;22;102913;-80
2021/04/06 12:58:24;;;;;;;4.03;1.63;;;;;;;6.67;49.38;98173.69;6204725;22;103033;-80
2021/04/06 13:00:51;;;;;;;3.43;1.77;;;;;;;7.00;49.86;98177.56;6203847;22;103914;-80
2021/04/06 13:03:19;;;;;;;2.67;1.70;;;;;;;7.19;49.12;98182.44;6208383;22;104444;-79
2021/04/06 13:05:48;;;;;;;4.97;1.40;;;;;;;7.15;48.15;98175.72;6213590;22;103062;-78